Time;durP1;ratioP1;P1;durP2;ratioP2;P2;SDS_P1;SDS_P2;PMS_P1;PMS_P2;Temp;Humidity;BMP_temperature;BMP_pressure;BME280_temperature;BME280_humidity;BME280_pressure;Samples;Min_cycle;Max_cycle;Signal;HPM_P1;HPM_P2
2021/01/11 00:00:16;;;;;;;42.43;26.30;;;;;;;;;;4376205;32;20335;-55
2021/01/11 00:02:42;;;;;;;41.33;26.23;;;;;;;;;;4392438;32;20268;-55
2021/01/11 00:05:08;;;;;;;38.53;24.10;;;;;;;;;;4399617;32;20217;-56
2021/01/11 00:07:34;;;;;;;35.00;21.80;;;;;;;;;;4400994;32;20356;-59
2021/01/11 00:09:59;;;;;;;30.10;19.97;;;;;;;;;;4387672;32;20304;-57
2021/01/11 00:12:25;;;;;;;34.33;19.73;;;;;;;;;;4385885;32;20662;-56
2021/01/11 00:14:50;;;;;;;35.80;21.13;;;;;;;;;;4402074;32;20289;-57
2021/01/11 00:17:16;;;;;;;42.53;23.17;;;;;;;;;;4397436;32;20233;-57
2021/01/11 00:19:41;;;;;;;42.77;24.27;;;;;;;;;;4402790;32;20284;-58
2021/01/11 00:22:07;;;;;;;48.20;28.57;;;;;;;;;;4401891;32;20230;-59
2021/01/11 00:24:33;;;;;;;47.70;29.80;;;;;;;;;;4388408;32;20328;-58
2021/01/11 00:26:59;;;;;;;63.60;34.07;;;;;;;;;;4386305;32;20384;-59
2021/01/11 00:29:24;;;;;;;65.63;35.50;;;;;;;;;;4401757;32;20665;-57
2021/01/11 00:31:50;;;;;;;71.07;38.60;;;;;;;;;;4397440;32;20284;-58
2021/01/11 00:34:16;;;;;;;76.53;43.60;;;;;;;;;;4389721;32;20269;-57
2021/01/11 00:36:46;;;;;;;107.57;54.73;;;;;;;;;;4395730;32;20674;-58
2021/01/11 00:39:12;;;;;;;92.13;51.13;;;;;;;;;;4398350;32;20201;-56
2021/01/11 00:41:37;;;;;;;88.07;49.90;;;;;;;;;;4401683;32;20692;-57
2021/01/11 00:44:03;;;;;;;87.37;48.50;;;;;;;;;;4386619;32;20339;-56
2021/01/11 00:46:29;;;;;;;81.20;46.27;;;;;;;;;;4389408;32;20354;-57
2021/01/11 00:48:55;;;;;;;104.07;52.40;;;;;;;;;;4400281;32;20284;-57
2021/01/11 00:51:24;;;;;;;98.00;55.03;;;;;;;;;;4400901;32;20671;-57
2021/01/11 00:53:50;;;;;;;94.07;54.10;;;;;;;;;;4394958;32;20249;-56
2021/01/11 00:56:18;;;;;;;87.83;49.53;;;;;;;;;;4401278;32;20277;-56
2021/01/11 00:58:44;;;;;;;100.20;55.07;;;;;;;;;;4399249;32;20315;-56
2021/01/11 01:01:10;;;;;;;116.30;60.33;;;;;;;;;;4399860;32;20214;-57
2021/01/11 01:03:37;;;;;;;89.20;45.03;;;;;;;;;;4386534;32;20241;-57
2021/01/11 01:06:04;;;;;;;53.27;31.17;;;;;;;;;;4400970;32;20217;-58
2021/01/11 01:08:31;;;;;;;45.10;27.07;;;;;;;;;;4386724;32;20225;-57
2021/01/11 01:10:57;;;;;;;41.63;24.67;;;;;;;;;;4400577;32;20249;-57
2021/01/11 01:13:22;;;;;;;40.20;25.20;;;;;;;;;;4394252;32;20383;-57
2021/01/11 01:15:48;;;;;;;30.60;20.43;;;;;;;;;;4398032;32;20222;-57
2021/01/11 01:18:13;;;;;;;35.50;20.17;;;;;;;;;;4397666;32;20300;-56
2021/01/11 01:20:38;;;;;;;31.87;19.13;;;;;;;;;;4401155;32;20659;-57
2021/01/11 01:23:04;;;;;;;24.43;18.53;;;;;;;;;;4381863;32;20229;-57
2021/01/11 01:25:29;;;;;;;23.63;17.43;;;;;;;;;;4372560;32;20248;-56
2021/01/11 01:27:55;;;;;;;21.90;15.23;;;;;;;;;;4393953;32;20311;-57
2021/01/11 01:30:21;;;;;;;22.67;15.80;;;;;;;;;;4399802;32;20670;-57
2021/01/11 01:32:46;;;;;;;26.47;17.37;;;;;;;;;;4392900;32;20744;-56
2021/01/11 01:35:12;;;;;;;32.17;18.17;;;;;;;;;;4387624;32;20368;-57
2021/01/11 01:37:38;;;;;;;24.00;16.10;;;;;;;;;;4396414;32;20270;-57
2021/01/11 01:40:05;;;;;;;30.47;18.73;;;;;;;;;;4387660;32;20330;-57
2021/01/11 01:42:31;;;;;;;27.30;17.33;;;;;;;;;;4392855;32;20309;-57
2021/01/11 01:44:56;;;;;;;27.27;17.57;;;;;;;;;;4396979;32;20293;-57
2021/01/11 01:47:22;;;;;;;26.57;17.97;;;;;;;;;;4396273;32;20213;-57
2021/01/11 01:49:49;;;;;;;28.63;19.30;;;;;;;;;;4397329;32;20663;-59
2021/01/11 01:52:15;;;;;;;32.27;18.80;;;;;;;;;;4387710;32;20301;-57
2021/01/11 01:54:42;;;;;;;26.53;18.80;;;;;;;;;;4395389;32;20218;-58
2021/01/11 01:57:08;;;;;;;26.97;18.60;;;;;;;;;;4382341;32;20296;-57
2021/01/11 01:59:34;;;;;;;28.13;17.83;;;;;;;;;;4400637;32;20772;-57
2021/01/11 02:02:00;;;;;;;26.83;17.87;;;;;;;;;;4384008;32;20272;-57
2021/01/11 02:04:26;;;;;;;25.70;14.60;;;;;;;;;;4379827;32;20354;-58
2021/01/11 02:06:57;;;;;;;23.97;13.53;;;;;;;;;;4384216;32;20213;-56
2021/01/11 02:10:01;;;;;;;19.37;12.90;;;;;;;;;;4399326;32;20957;-56
2021/01/11 02:12:50;;;;;;;17.87;10.20;;;;;;;;;;4386666;32;20232;-55
2021/01/11 02:15:26;;;;;;;21.87;9.70;;;;;;;;;;4401224;32;20386;-55
2021/01/11 02:18:01;;;;;;;16.80;10.27;;;;;;;;;;4390663;32;20610;-55
2021/01/11 02:20:58;;;;;;;17.40;10.43;;;;;;;;;;4402335;32;20251;-55
2021/01/11 02:23:47;;;;;;;15.13;10.70;;;;;;;;;;4401788;32;20681;-56
2021/01/11 02:26:23;;;;;;;14.87;10.37;;;;;;;;;;4395920;32;20308;-55
2021/01/11 02:28:51;;;;;;;14.10;11.03;;;;;;;;;;4377514;32;20225;-54
2021/01/11 02:31:18;;;;;;;25.97;12.37;;;;;;;;;;4385909;32;20238;-54
2021/01/11 02:33:45;;;;;;;19.03;11.10;;;;;;;;;;4401629;32;20229;-55
2021/01/11 02:36:11;;;;;;;19.90;13.10;;;;;;;;;;4395394;32;20264;-55
2021/01/11 02:38:38;;;;;;;23.43;14.37;;;;;;;;;;4394072;32;20823;-57
2021/01/11 02:41:04;;;;;;;29.40;18.03;;;;;;;;;;4401786;32;20618;-55
2021/01/11 02:43:30;;;;;;;23.03;14.23;;;;;;;;;;4388825;32;20211;-54
2021/01/11 02:45:56;;;;;;;21.13;13.77;;;;;;;;;;4402030;32;20661;-55
2021/01/11 02:48:43;;;;;;;19.17;14.10;;;;;;;;;;4401112;32;20288;-54
2021/01/11 02:51:19;;;;;;;16.60;11.83;;;;;;;;;;4384658;32;20238;-54
2021/01/11 02:54:01;;;;;;;23.73;12.60;;;;;;;;;;4374944;32;20205;-54
2021/01/11 02:56:32;;;;;;;18.63;11.57;;;;;;;;;;4386767;32;20218;-54
2021/01/11 02:59:07;;;;;;;15.13;11.10;;;;;;;;;;4386003;32;20229;-55
2021/01/11 03:01:37;;;;;;;15.37;10.87;;;;;;;;;;4374326;32;20347;-55
2021/01/11 03:04:04;;;;;;;15.27;9.80;;;;;;;;;;4377166;32;20202;-55
2021/01/11 03:06:32;;;;;;;17.67;10.70;;;;;;;;;;4386505;32;20210;-53
2021/01/11 03:09:03;;;;;;;15.73;8.77;;;;;;;;;;4382061;32;20265;-53
2021/01/11 03:11:29;;;;;;;12.07;9.17;;;;;;;;;;4381028;32;20218;-53
2021/01/11 03:13:55;;;;;;;14.23;10.17;;;;;;;;;;4374807;32;20301;-54
2021/01/11 03:16:20;;;;;;;14.67;8.73;;;;;;;;;;4386603;32;20229;-55
2021/01/11 03:18:45;;;;;;;16.23;9.30;;;;;;;;;;4385878;32;20296;-55
2021/01/11 03:21:11;;;;;;;11.50;8.40;;;;;;;;;;4385298;32;20645;-55
2021/01/11 03:23:37;;;;;;;13.73;9.30;;;;;;;;;;4374686;32;20308;-55
2021/01/11 03:26:03;;;;;;;10.87;6.07;;;;;;;;;;4389532;32;20333;-55
2021/01/11 03:28:28;;;;;;;13.67;7.97;;;;;;;;;;4389112;32;20277;-54
2021/01/11 03:30:53;;;;;;;12.87;7.47;;;;;;;;;;4378499;32;20296;-55
2021/01/11 03:33:19;;;;;;;12.07;7.73;;;;;;;;;;4387429;32;20352;-55
2021/01/11 03:35:44;;;;;;;14.90;10.83;;;;;;;;;;4384733;32;20238;-54
2021/01/11 03:38:10;;;;;;;20.57;12.70;;;;;;;;;;4382799;32;20472;-54
2021/01/11 03:40:35;;;;;;;21.67;13.43;;;;;;;;;;4379163;32;20331;-53
2021/01/11 03:43:01;;;;;;;22.70;14.40;;;;;;;;;;4385210;32;20285;-54
2021/01/11 03:45:26;;;;;;;20.37;13.00;;;;;;;;;;4386495;32;20238;-53
2021/01/11 03:47:51;;;;;;;26.47;17.37;;;;;;;;;;4378006;32;20394;-56
2021/01/11 03:50:17;;;;;;;45.67;22.00;;;;;;;;;;4380984;32;20718;-55
2021/01/11 03:52:42;;;;;;;52.37;27.50;;;;;;;;;;4372121;32;20340;-55
2021/01/11 03:55:08;;;;;;;21.57;12.73;;;;;;;;;;4374175;32;20303;-54
2021/01/11 03:57:34;;;;;;;20.07;14.30;;;;;;;;;;4373668;32;20252;-55
2021/01/11 03:59:59;;;;;;;19.13;11.97;;;;;;;;;;4372663;32;20305;-55
2021/01/11 04:02:25;;;;;;;14.43;9.47;;;;;;;;;;4372348;32;20710;-54
2021/01/11 04:04:51;;;;;;;18.97;10.63;;;;;;;;;;4373871;32;20351;-55
2021/01/11 04:07:16;;;;;;;9.07;6.63;;;;;;;;;;4373569;32;20567;-53
2021/01/11 04:09:42;;;;;;;10.07;6.80;;;;;;;;;;4374031;32;20683;-54
2021/01/11 04:12:07;;;;;;;13.07;8.97;;;;;;;;;;4373258;32;20690;-54
2021/01/11 04:14:33;;;;;;;15.90;9.93;;;;;;;;;;4374111;32;20759;-56
2021/01/11 04:16:59;;;;;;;12.33;9.67;;;;;;;;;;4372903;32;20342;-55
2021/01/11 04:19:24;;;;;;;20.13;9.97;;;;;;;;;;4370995;32;20305;-55
2021/01/11 04:21:50;;;;;;;23.40;11.30;;;;;;;;;;4372867;32;20717;-54
2021/01/11 04:24:15;;;;;;;13.87;10.00;;;;;;;;;;4372707;32;20278;-54
2021/01/11 04:26:44;;;;;;;26.93;14.50;;;;;;;;;;4373090;32;20283;-54
2021/01/11 04:29:09;;;;;;;19.37;13.23;;;;;;;;;;4373965;32;20551;-54
2021/01/11 04:31:34;;;;;;;20.17;12.77;;;;;;;;;;4372873;32;20245;-53
2021/01/11 04:34:00;;;;;;;22.53;12.07;;;;;;;;;;4373628;32;20316;-54
2021/01/11 04:36:25;;;;;;;19.27;11.80;;;;;;;;;;4372981;32;20348;-55
2021/01/11 04:38:51;;;;;;;20.27;11.97;;;;;;;;;;4373294;32;20281;-57
2021/01/11 04:41:19;;;;;;;15.03;10.50;;;;;;;;;;4372253;32;20679;-56
2021/01/11 04:43:47;;;;;;;21.13;13.20;;;;;;;;;;4372424;32;20904;-55
2021/01/11 04:46:13;;;;;;;24.23;14.13;;;;;;;;;;4373681;32;20263;-55
2021/01/11 04:48:42;;;;;;;23.10;16.47;;;;;;;;;;4373431;32;20285;-54
2021/01/11 04:51:07;;;;;;;26.87;15.37;;;;;;;;;;4375999;32;20234;-55
2021/01/11 04:53:34;;;;;;;22.57;14.17;;;;;;;;;;4386507;32;20354;-55
2021/01/11 04:56:03;;;;;;;22.87;13.70;;;;;;;;;;4388063;32;20229;-56
2021/01/11 04:58:55;;;;;;;27.30;17.27;;;;;;;;;;4386100;32;20237;-55
2021/01/11 05:01:22;;;;;;;31.03;20.33;;;;;;;;;;4388031;32;20240;-55
2021/01/11 05:03:49;;;;;;;34.07;22.30;;;;;;;;;;4388084;32;20222;-55
2021/01/11 05:06:17;;;;;;;27.13;19.97;;;;;;;;;;4387882;32;20331;-55
2021/01/11 05:08:43;;;;;;;40.57;24.87;;;;;;;;;;4385832;32;20314;-54
2021/01/11 05:11:08;;;;;;;46.87;25.60;;;;;;;;;;4368988;32;20249;-54
2021/01/11 05:13:33;;;;;;;41.77;20.37;;;;;;;;;;4386802;32;20257;-55
2021/01/11 05:16:10;;;;;;;33.53;19.90;;;;;;;;;;4386544;32;20666;-55
2021/01/11 05:18:36;;;;;;;38.57;23.10;;;;;;;;;;4387261;32;20217;-54
2021/01/11 05:21:01;;;;;;;15.73;10.57;;;;;;;;;;4387508;32;20272;-53
2021/01/11 05:23:34;;;;;;;12.63;8.80;;;;;;;;;;4377255;32;20269;-54
2021/01/11 05:26:05;;;;;;;12.20;7.90;;;;;;;;;;4386370;32;20655;-55
2021/01/11 05:28:32;;;;;;;11.13;8.43;;;;;;;;;;4382212;32;20265;-54
2021/01/11 05:30:57;;;;;;;11.57;9.63;;;;;;;;;;4377229;32;20647;-55
2021/01/11 05:33:25;;;;;;;14.60;11.10;;;;;;;;;;4384374;32;20362;-55
2021/01/11 05:36:10;;;;;;;15.10;11.43;;;;;;;;;;4386265;32;20618;-55
2021/01/11 05:38:38;;;;;;;16.27;9.83;;;;;;;;;;4383646;32;20276;-55
2021/01/11 05:41:16;;;;;;;18.10;11.80;;;;;;;;;;4387114;32;20509;-54
2021/01/11 05:43:42;;;;;;;15.87;10.30;;;;;;;;;;4386445;32;20677;-54
2021/01/11 05:46:24;;;;;;;15.70;10.77;;;;;;;;;;4387295;32;20315;-55
2021/01/11 05:48:58;;;;;;;11.33;8.87;;;;;;;;;;4382590;32;20202;-56
2021/01/11 05:51:28;;;;;;;15.50;10.87;;;;;;;;;;4380271;32;20321;-54
2021/01/11 05:53:54;;;;;;;19.20;12.60;;;;;;;;;;4401626;32;20280;-54
2021/01/11 05:56:20;;;;;;;12.17;8.27;;;;;;;;;;4401906;32;20313;-55
2021/01/11 05:59:04;;;;;;;21.13;13.30;;;;;;;;;;4392488;32;20289;-53
2021/01/11 06:01:31;;;;;;;34.63;18.93;;;;;;;;;;4401299;32;20221;-54
2021/01/11 06:03:56;;;;;;;35.60;17.47;;;;;;;;;;4394921;32;20202;-54
2021/01/11 06:06:23;;;;;;;31.17;16.13;;;;;;;;;;4402028;32;20612;-54
2021/01/11 06:08:49;;;;;;;27.57;13.53;;;;;;;;;;4401707;32;20595;-54
2021/01/11 06:11:20;;;;;;;26.67;14.07;;;;;;;;;;4401825;32;20237;-55
2021/01/11 06:13:48;;;;;;;26.20;15.07;;;;;;;;;;4386920;32;20371;-55
2021/01/11 06:16:16;;;;;;;31.00;18.43;;;;;;;;;;4401642;32;20361;-56
2021/01/11 06:18:42;;;;;;;42.13;25.07;;;;;;;;;;4400726;32;20611;-55
2021/01/11 06:21:10;;;;;;;51.77;31.17;;;;;;;;;;4399885;32;20279;-56
2021/01/11 06:23:36;;;;;;;58.97;35.83;;;;;;;;;;4387587;32;20290;-55
2021/01/11 06:26:28;;;;;;;66.77;33.93;;;;;;;;;;4401677;32;20253;-55
2021/01/11 06:28:54;;;;;;;66.93;37.70;;;;;;;;;;4401579;32;20319;-54
2021/01/11 06:31:27;;;;;;;51.97;32.23;;;;;;;;;;4402244;32;20233;-55
2021/01/11 06:33:52;;;;;;;39.53;27.83;;;;;;;;;;4401850;32;20233;-55
2021/01/11 06:36:31;;;;;;;66.17;45.80;;;;;;;;;;4400226;32;20303;-55
2021/01/11 06:39:07;;;;;;;54.60;39.97;;;;;;;;;;4383857;32;20582;-56
2021/01/11 06:41:33;;;;;;;27.37;21.30;;;;;;;;;;4401549;32;20315;-55
2021/01/11 06:44:07;;;;;;;33.47;21.70;;;;;;;;;;4393094;32;20314;-55
2021/01/11 06:46:32;;;;;;;46.20;27.63;;;;;;;;;;4399212;32;20229;-55
2021/01/11 06:49:00;;;;;;;46.00;28.17;;;;;;;;;;4385504;32;20686;-56
2021/01/11 06:51:31;;;;;;;45.53;31.00;;;;;;;;;;4373503;32;20624;-55
2021/01/11 06:54:07;;;;;;;42.63;28.37;;;;;;;;;;4400545;32;20213;-55
2021/01/11 06:56:35;;;;;;;44.67;29.70;;;;;;;;;;4400284;32;20373;-55
2021/01/11 06:59:12;;;;;;;44.30;29.00;;;;;;;;;;4399463;32;20641;-54
2021/01/11 07:01:41;;;;;;;41.50;27.67;;;;;;;;;;4399160;32;20269;-55
2021/01/11 07:04:07;;;;;;;40.83;26.77;;;;;;;;;;4399895;32;20288;-55
2021/01/11 07:06:36;;;;;;;43.53;27.70;;;;;;;;;;4390086;32;20300;-56
2021/01/11 07:09:04;;;;;;;76.00;46.33;;;;;;;;;;4401785;32;20288;-54
2021/01/11 07:11:37;;;;;;;75.53;45.97;;;;;;;;;;4404134;32;20298;-56
2021/01/11 07:14:03;;;;;;;73.97;46.80;;;;;;;;;;4401488;32;20602;-55
2021/01/11 07:16:56;;;;;;;63.63;41.63;;;;;;;;;;4390198;32;20267;-54
2021/01/11 07:19:42;;;;;;;58.47;37.83;;;;;;;;;;4400075;32;20338;-54
2021/01/11 07:22:11;;;;;;;61.47;34.60;;;;;;;;;;4400085;32;20217;-54
2021/01/11 07:24:38;;;;;;;71.50;37.27;;;;;;;;;;4402099;32;20240;-54
2021/01/11 07:27:03;;;;;;;73.43;41.17;;;;;;;;;;4403535;32;20339;-54
2021/01/11 07:29:29;;;;;;;69.53;40.80;;;;;;;;;;4389471;32;20679;-54
2021/01/11 07:31:54;;;;;;;67.50;37.53;;;;;;;;;;4398839;32;20248;-54
2021/01/11 07:34:24;;;;;;;67.70;43.20;;;;;;;;;;4401841;32;20210;-54
2021/01/11 07:36:51;;;;;;;60.70;36.47;;;;;;;;;;4401757;32;20654;-55
2021/01/11 07:39:27;;;;;;;56.27;36.70;;;;;;;;;;4402123;32;20667;-55
2021/01/11 07:42:01;;;;;;;59.63;36.17;;;;;;;;;;4400237;32;20595;-55
2021/01/11 07:44:34;;;;;;;64.07;39.87;;;;;;;;;;4397270;32;20316;-54
2021/01/11 07:47:18;;;;;;;64.43;39.73;;;;;;;;;;4395823;32;20324;-55
2021/01/11 07:49:49;;;;;;;60.13;38.17;;;;;;;;;;4393041;32;20289;-55
2021/01/11 07:52:17;;;;;;;60.57;38.70;;;;;;;;;;4400720;32;20241;-54
2021/01/11 07:54:44;;;;;;;51.57;33.40;;;;;;;;;;4403858;32;20604;-54
2021/01/11 07:57:11;;;;;;;52.20;37.07;;;;;;;;;;4395407;32;20570;-54
2021/01/11 07:59:38;;;;;;;52.87;34.93;;;;;;;;;;4398632;32;20663;-55
2021/01/11 08:02:11;;;;;;;50.23;35.80;;;;;;;;;;4398676;32;20324;-55
2021/01/11 08:04:38;;;;;;;57.30;35.63;;;;;;;;;;4390250;32;20221;-55
2021/01/11 08:07:08;;;;;;;65.30;42.40;;;;;;;;;;4402283;32;20311;-54
2021/01/11 08:09:34;;;;;;;59.33;39.00;;;;;;;;;;4390605;32;20291;-55
2021/01/11 08:12:16;;;;;;;58.53;38.10;;;;;;;;;;4401042;32;20558;-55
2021/01/11 08:14:46;;;;;;;88.77;48.67;;;;;;;;;;4397455;32;20682;-55
2021/01/11 08:17:18;;;;;;;60.40;37.10;;;;;;;;;;4388988;32;20681;-54
2021/01/11 08:19:57;;;;;;;50.83;31.20;;;;;;;;;;4402405;32;20206;-58
2021/01/11 08:22:24;;;;;;;51.03;34.07;;;;;;;;;;4389181;32;20350;-58
2021/01/11 08:24:50;;;;;;;57.53;38.63;;;;;;;;;;4403213;32;20253;-57
2021/01/11 08:27:43;;;;;;;59.97;35.90;;;;;;;;;;4403019;32;20224;-56
2021/01/11 08:30:13;;;;;;;52.57;36.20;;;;;;;;;;4403947;32;20190;-57
2021/01/11 08:32:39;;;;;;;98.23;63.10;;;;;;;;;;4382631;32;20655;-58
2021/01/11 08:35:08;;;;;;;102.17;65.97;;;;;;;;;;4374449;32;20289;-54
2021/01/11 08:37:34;;;;;;;100.57;66.03;;;;;;;;;;4395665;32;20237;-54
2021/01/11 08:40:11;;;;;;;96.47;64.17;;;;;;;;;;4398995;32;20357;-54
2021/01/11 08:42:38;;;;;;;96.13;65.27;;;;;;;;;;4389635;32;20256;-54
2021/01/11 08:45:32;;;;;;;86.10;59.53;;;;;;;;;;4401085;32;20304;-54
2021/01/11 08:48:23;;;;;;;84.07;55.47;;;;;;;;;;4402549;32;20201;-54
2021/01/11 08:50:52;;;;;;;92.43;58.13;;;;;;;;;;4402568;32;20222;-55
2021/01/11 08:53:25;;;;;;;93.67;60.37;;;;;;;;;;4403025;32;20626;-54
2021/01/11 08:55:54;;;;;;;105.17;62.27;;;;;;;;;;4389355;32;20512;-55
2021/01/11 08:58:20;;;;;;;97.17;62.47;;;;;;;;;;4399210;32;20217;-54
2021/01/11 09:00:45;;;;;;;105.37;63.97;;;;;;;;;;4388899;32;20256;-55
2021/01/11 09:03:11;;;;;;;165.97;92.40;;;;;;;;;;4397351;32;20807;-54
2021/01/11 09:05:37;;;;;;;174.57;94.10;;;;;;;;;;4403747;32;20218;-55
2021/01/11 09:08:17;;;;;;;137.10;87.10;;;;;;;;;;4393902;32;20461;-55
2021/01/11 09:10:44;;;;;;;122.47;80.07;;;;;;;;;;4385281;32;20256;-55
2021/01/11 09:13:19;;;;;;;145.03;88.33;;;;;;;;;;4394398;32;20281;-54
2021/01/11 09:15:45;;;;;;;126.43;83.57;;;;;;;;;;4402761;32;20249;-55
2021/01/11 09:18:12;;;;;;;138.17;89.93;;;;;;;;;;4397495;32;20279;-55
2021/01/11 09:20:40;;;;;;;152.70;94.40;;;;;;;;;;4402540;32;20692;-54
2021/01/11 09:23:05;;;;;;;138.87;92.70;;;;;;;;;;4402294;32;20240;-55
2021/01/11 09:25:32;;;;;;;145.10;83.67;;;;;;;;;;4402563;32;20221;-55
2021/01/11 09:27:59;;;;;;;128.63;78.67;;;;;;;;;;4394077;32;20213;-54
2021/01/11 09:30:26;;;;;;;64.63;40.53;;;;;;;;;;4393649;32;20271;-54
2021/01/11 09:32:51;;;;;;;61.90;41.90;;;;;;;;;;4395401;32;20268;-54
2021/01/11 09:35:17;;;;;;;74.77;49.57;;;;;;;;;;4388393;32;20742;-54
2021/01/11 09:37:43;;;;;;;73.70;49.57;;;;;;;;;;4396210;32;20332;-55
2021/01/11 09:40:09;;;;;;;62.07;40.13;;;;;;;;;;4386221;32;20280;-55
2021/01/11 09:42:35;;;;;;;38.67;24.57;;;;;;;;;;4395114;32;20670;-55
2021/01/11 09:45:00;;;;;;;29.53;19.03;;;;;;;;;;4388213;32;20257;-55
2021/01/11 09:47:26;;;;;;;35.93;19.63;;;;;;;;;;4384298;32;20262;-54
2021/01/11 09:49:51;;;;;;;27.07;16.60;;;;;;;;;;4393459;32;20752;-55
2021/01/11 09:52:17;;;;;;;30.40;17.00;;;;;;;;;;4395921;32;20301;-55
2021/01/11 09:54:42;;;;;;;31.60;19.83;;;;;;;;;;4402186;32;20527;-55
2021/01/11 09:57:10;;;;;;;27.70;17.17;;;;;;;;;;4401170;32;20253;-54
2021/01/11 09:59:37;;;;;;;31.63;19.30;;;;;;;;;;4393831;32;20659;-54
2021/01/11 10:02:02;;;;;;;35.23;22.00;;;;;;;;;;4397482;32;20249;-54
2021/01/11 10:04:27;;;;;;;26.40;17.40;;;;;;;;;;4377781;32;20651;-54
2021/01/11 10:06:56;;;;;;;70.73;41.60;;;;;;;;;;4399985;32;20744;-55
2021/01/11 10:09:27;;;;;;;30.20;17.37;;;;;;;;;;4397991;32;20201;-54
2021/01/11 10:11:58;;;;;;;26.53;15.80;;;;;;;;;;4399464;32;20229;-55
2021/01/11 10:14:24;;;;;;;16.90;10.63;;;;;;;;;;4400064;32;20560;-55
2021/01/11 10:16:50;;;;;;;21.83;13.80;;;;;;;;;;4400709;32;20229;-55
2021/01/11 10:19:23;;;;;;;30.70;19.53;;;;;;;;;;4401582;32;20323;-55
2021/01/11 10:21:49;;;;;;;34.67;23.07;;;;;;;;;;4391236;32;20226;-54
2021/01/11 10:24:16;;;;;;;50.20;32.93;;;;;;;;;;4387008;32;20662;-54
2021/01/11 10:26:43;;;;;;;50.13;31.17;;;;;;;;;;4401379;32;20298;-54
2021/01/11 10:29:11;;;;;;;58.70;37.30;;;;;;;;;;4401370;32;20271;-55
2021/01/11 10:31:37;;;;;;;67.37;43.83;;;;;;;;;;4401365;32;20353;-54
2021/01/11 10:34:03;;;;;;;188.23;91.33;;;;;;;;;;4400650;32;20725;-55
2021/01/11 10:36:36;;;;;;;176.47;91.70;;;;;;;;;;4401129;32;20260;-55
2021/01/11 10:39:01;;;;;;;108.37;64.63;;;;;;;;;;4396875;32;20321;-54
2021/01/11 10:41:27;;;;;;;57.17;37.30;;;;;;;;;;4378754;32;20234;-55
2021/01/11 10:43:53;;;;;;;43.07;30.33;;;;;;;;;;4394724;32;20245;-55
2021/01/11 10:46:18;;;;;;;24.10;16.90;;;;;;;;;;4398995;32;20398;-55
2021/01/11 10:48:44;;;;;;;56.03;44.43;;;;;;;;;;4384898;32;20252;-53
2021/01/11 10:51:14;;;;;;;45.07;32.30;;;;;;;;;;4389702;32;20703;-54
2021/01/11 10:53:44;;;;;;;52.37;29.30;;;;;;;;;;4380641;32;20253;-53
2021/01/11 10:56:11;;;;;;;36.87;25.37;;;;;;;;;;4396530;32;20267;-53
2021/01/11 10:58:36;;;;;;;22.17;17.20;;;;;;;;;;4399030;32;20284;-53
2021/01/11 11:01:07;;;;;;;16.27;12.63;;;;;;;;;;4390167;32;20730;-53
2021/01/11 11:03:32;;;;;;;40.73;35.27;;;;;;;;;;4387252;32;20333;-54
2021/01/11 11:05:58;;;;;;;16.93;11.47;;;;;;;;;;4397252;32;20635;-53
2021/01/11 11:08:23;;;;;;;49.70;27.03;;;;;;;;;;4401055;32;20626;-54
2021/01/11 11:10:49;;;;;;;38.77;22.23;;;;;;;;;;4394262;32;20300;-54
2021/01/11 11:13:14;;;;;;;35.73;23.00;;;;;;;;;;4400343;32;20257;-54
2021/01/11 11:15:44;;;;;;;25.93;15.90;;;;;;;;;;4396234;32;20282;-53
2021/01/11 11:18:10;;;;;;;24.80;13.13;;;;;;;;;;4400846;32;20240;-55
2021/01/11 11:20:36;;;;;;;9.10;6.57;;;;;;;;;;4390777;32;20296;-53
2021/01/11 11:23:01;;;;;;;7.77;6.93;;;;;;;;;;4400013;32;20474;-55
2021/01/11 11:25:27;;;;;;;17.20;11.63;;;;;;;;;;4399846;32;20221;-53
2021/01/11 11:27:52;;;;;;;57.60;26.23;;;;;;;;;;4400668;32;20285;-52
2021/01/11 11:30:18;;;;;;;59.80;30.20;;;;;;;;;;4401117;32;20394;-53
2021/01/11 11:32:48;;;;;;;20.47;13.17;;;;;;;;;;4401135;32;20671;-55
2021/01/11 11:35:15;;;;;;;16.23;8.13;;;;;;;;;;4400787;32;20288;-53
2021/01/11 11:37:41;;;;;;;34.10;18.07;;;;;;;;;;4391775;32;20218;-54
2021/01/11 11:40:08;;;;;;;22.27;11.20;;;;;;;;;;4395876;32;20288;-53
2021/01/11 11:42:37;;;;;;;20.63;13.20;;;;;;;;;;4397134;32;20393;-53
2021/01/11 11:45:10;;;;;;;13.17;8.07;;;;;;;;;;4390102;32;20521;-53
2021/01/11 11:47:37;;;;;;;16.37;11.47;;;;;;;;;;4401516;32;20589;-53
2021/01/11 11:50:11;;;;;;;15.47;9.00;;;;;;;;;;4394835;32;20240;-53
2021/01/11 11:52:37;;;;;;;7.30;5.53;;;;;;;;;;4399876;32;20303;-53
2021/01/11 11:55:05;;;;;;;12.67;8.43;;;;;;;;;;4393323;32;20296;-53
2021/01/11 11:57:31;;;;;;;14.50;10.90;;;;;;;;;;4404023;32;20197;-53
2021/01/11 11:59:56;;;;;;;17.40;12.77;;;;;;;;;;4390033;32;20375;-53
2021/01/11 12:02:21;;;;;;;22.03;13.00;;;;;;;;;;4402832;32;20228;-53
2021/01/11 12:04:47;;;;;;;21.00;14.53;;;;;;;;;;4391967;32;20291;-53
2021/01/11 12:07:13;;;;;;;19.67;12.87;;;;;;;;;;4389005;32;20343;-52
2021/01/11 12:09:40;;;;;;;15.47;10.40;;;;;;;;;;4389805;32;20248;-53
2021/01/11 12:12:05;;;;;;;18.37;11.83;;;;;;;;;;4403638;32;20350;-52
2021/01/11 12:14:31;;;;;;;31.27;18.03;;;;;;;;;;4403591;32;20284;-53
2021/01/11 12:16:56;;;;;;;27.27;18.10;;;;;;;;;;4389401;32;20341;-53
2021/01/11 12:19:22;;;;;;;24.33;14.80;;;;;;;;;;4403451;32;20337;-52
2021/01/11 12:21:47;;;;;;;33.40;19.73;;;;;;;;;;4402348;32;20233;-53
2021/01/11 12:24:13;;;;;;;31.97;21.47;;;;;;;;;;4388372;32;20303;-51
2021/01/11 12:26:47;;;;;;;60.77;35.57;;;;;;;;;;4393210;32;20255;-53
2021/01/11 12:29:13;;;;;;;15.47;10.07;;;;;;;;;;4403089;32;20209;-52
2021/01/11 12:31:40;;;;;;;33.83;19.00;;;;;;;;;;4403620;32;20749;-53
2021/01/11 12:34:07;;;;;;;40.87;25.13;;;;;;;;;;4389519;32;20316;-52
2021/01/11 12:36:35;;;;;;;45.17;27.90;;;;;;;;;;4401149;32;20328;-52
2021/01/11 12:39:02;;;;;;;40.90;26.00;;;;;;;;;;4398218;32;20249;-53
2021/01/11 12:41:27;;;;;;;37.97;21.27;;;;;;;;;;4403264;32;20285;-52
2021/01/11 12:43:54;;;;;;;43.50;23.93;;;;;;;;;;4389220;32;20700;-53
2021/01/11 12:46:21;;;;;;;47.47;23.63;;;;;;;;;;4403062;32;20753;-52
2021/01/11 12:48:48;;;;;;;142.73;60.90;;;;;;;;;;4401247;32;20206;-54
2021/01/11 12:51:14;;;;;;;119.00;54.43;;;;;;;;;;4387410;32;20386;-52
2021/01/11 12:53:39;;;;;;;74.97;44.53;;;;;;;;;;4401391;32;20658;-53
2021/01/11 12:56:22;;;;;;;47.40;27.70;;;;;;;;;;4401825;32;20225;-54
2021/01/11 12:58:55;;;;;;;45.53;30.30;;;;;;;;;;4395546;32;20293;-54
2021/01/11 13:01:23;;;;;;;37.93;22.77;;;;;;;;;;4382222;32;20363;-54
2021/01/11 13:03:50;;;;;;;37.33;19.60;;;;;;;;;;4397952;32;20508;-53
2021/01/11 13:06:25;;;;;;;57.33;29.67;;;;;;;;;;4400313;32;20229;-55
2021/01/11 13:08:51;;;;;;;186.63;91.73;;;;;;;;;;4399546;32;20322;-55
2021/01/11 13:11:18;;;;;;;129.17;62.97;;;;;;;;;;4399124;32;20637;-54
2021/01/11 13:13:48;;;;;;;38.17;19.90;;;;;;;;;;4400091;32;20371;-55
2021/01/11 13:16:27;;;;;;;58.90;39.80;;;;;;;;;;4388370;32;20323;-54
2021/01/11 13:18:53;;;;;;;40.17;24.40;;;;;;;;;;4401350;32;20319;-54
2021/01/11 13:21:19;;;;;;;59.07;36.03;;;;;;;;;;4402385;32;20646;-54
2021/01/11 13:23:45;;;;;;;51.60;30.23;;;;;;;;;;4389340;32;20761;-54
2021/01/11 13:26:11;;;;;;;46.87;29.37;;;;;;;;;;4392281;32;20310;-54
2021/01/11 13:28:36;;;;;;;52.90;32.90;;;;;;;;;;4400050;32;20288;-56
2021/01/11 13:31:06;;;;;;;79.87;50.03;;;;;;;;;;4387691;32;20229;-54
2021/01/11 13:33:32;;;;;;;77.80;47.87;;;;;;;;;;4396884;32;20618;-54
2021/01/11 13:35:57;;;;;;;36.03;23.80;;;;;;;;;;4402875;32;20263;-54
2021/01/11 13:38:24;;;;;;;37.47;20.23;;;;;;;;;;4393382;32;20305;-56
2021/01/11 13:40:51;;;;;;;37.43;23.77;;;;;;;;;;4400229;32;21228;-53
2021/01/11 13:43:17;;;;;;;79.37;44.27;;;;;;;;;;4402418;32;20684;-54
2021/01/11 13:45:45;;;;;;;53.87;32.63;;;;;;;;;;4402321;32;20225;-54
2021/01/11 13:48:11;;;;;;;43.60;26.50;;;;;;;;;;4402131;32;20210;-54
2021/01/11 13:50:36;;;;;;;65.23;39.67;;;;;;;;;;4388186;32;20229;-54
2021/01/11 13:53:02;;;;;;;147.77;85.40;;;;;;;;;;4388945;32;20674;-55
2021/01/11 13:55:27;;;;;;;54.43;36.33;;;;;;;;;;4400964;32;20272;-54
2021/01/11 13:57:53;;;;;;;64.40;36.87;;;;;;;;;;4388292;32;20316;-56
2021/01/11 14:00:19;;;;;;;22.33;14.13;;;;;;;;;;4397324;32;20269;-54
2021/01/11 14:02:44;;;;;;;21.17;13.57;;;;;;;;;;4402153;32;20329;-57
2021/01/11 14:05:11;;;;;;;31.37;17.23;;;;;;;;;;4391158;32;20346;-54
2021/01/11 14:07:36;;;;;;;18.23;12.27;;;;;;;;;;4405646;32;20233;-54
2021/01/11 14:10:03;;;;;;;19.53;12.93;;;;;;;;;;4406514;32;20310;-54
2021/01/11 14:12:30;;;;;;;31.60;22.23;;;;;;;;;;4402358;32;20637;-53
2021/01/11 14:14:55;;;;;;;29.33;18.70;;;;;;;;;;4395436;32;20477;-53
2021/01/11 14:17:21;;;;;;;22.00;14.57;;;;;;;;;;4388309;32;20370;-54
2021/01/11 14:19:47;;;;;;;38.17;26.20;;;;;;;;;;4379026;32;20287;-55
2021/01/11 14:22:13;;;;;;;37.63;24.93;;;;;;;;;;4394060;32;20241;-54
2021/01/11 14:24:38;;;;;;;37.07;23.33;;;;;;;;;;4388090;32;20717;-55